sensor_id;sensor_type;location;lat;lon;timestamp;temperature;humidity
23207;DHT22;11773;52.570;13.052;2023-04-25T00:00:45;11.90;99.90
23207;DHT22;11773;52.570;13.052;2023-04-25T00:03:15;12.00;99.90
23207;DHT22;11773;52.570;13.052;2023-04-25T00:05:46;12.00;99.90
23207;DHT22;11773;52.570;13.052;2023-04-25T00:08:17;12.00;99.90
23207;DHT22;11773;52.570;13.052;2023-04-25T00:10:47;11.90;99.90
23207;DHT22;11773;52.570;13.052;2023-04-25T00:13:16;11.80;99.90
23207;DHT22;11773;52.570;13.052;2023-04-25T00:15:46;11.70;99.90
23207;DHT22;11773;52.570;13.052;2023-04-25T00:18:16;11.70;99.90
23207;DHT22;11773;52.570;13.052;2023-04-25T00:20:46;11.70;99.90
23207;DHT22;11773;52.570;13.052;2023-04-25T00:23:17;11.70;99.90
23207;DHT22;11773;52.570;13.052;2023-04-25T00:25:48;11.50;99.90
23207;DHT22;11773;52.570;13.052;2023-04-25T00:28:18;11.50;99.90
23207;DHT22;11773;52.570;13.052;2023-04-25T00:30:48;11.60;99.90
23207;DHT22;11773;52.570;13.052;2023-04-25T00:33:17;11.70;99.90
23207;DHT22;11773;52.570;13.052;2023-04-25T00:35:47;11.60;99.90
23207;DHT22;11773;52.570;13.052;2023-04-25T00:38:17;11.60;99.90
23207;DHT22;11773;52.570;13.052;2023-04-25T00:40:46;11.70;99.90
23207;DHT22;11773;52.570;13.052;2023-04-25T00:43:16;11.50;99.90
23207;DHT22;11773;52.570;13.052;2023-04-25T00:45:47;11.80;99.90
23207;DHT22;11773;52.570;13.052;2023-04-25T00:48:18;11.60;99.90
23207;DHT22;11773;52.570;13.052;2023-04-25T00:50:54;11.50;99.90
23207;DHT22;11773;52.570;13.052;2023-04-25T00:53:27;11.70;99.90
23207;DHT22;11773;52.570;13.052;2023-04-25T00:55:59;11.80;99.90
23207;DHT22;11773;52.570;13.052;2023-04-25T00:58:29;11.60;99.90
23207;DHT22;11773;52.570;13.052;2023-04-25T01:00:59;11.60;99.90
23207;DHT22;11773;52.570;13.052;2023-04-25T01:03:32;11.60;99.90
23207;DHT22;11773;52.570;13.052;2023-04-25T01:06:03;11.80;99.90
23207;DHT22;11773;52.570;13.052;2023-04-25T01:08:34;11.70;99.90
23207;DHT22;11773;52.570;13.052;2023-04-25T01:11:04;11.70;99.90
23207;DHT22;11773;52.570;13.052;2023-04-25T01:13:34;11.60;99.90
23207;DHT22;11773;52.570;13.052;2023-04-25T01:16:05;11.50;99.90
23207;DHT22;11773;52.570;13.052;2023-04-25T01:18:35;11.60;99.90
23207;DHT22;11773;52.570;13.052;2023-04-25T01:21:11;11.80;99.90
23207;DHT22;11773;52.570;13.052;2023-04-25T01:23:42;11.80;99.90
23207;DHT22;11773;52.570;13.052;2023-04-25T01:26:12;11.90;99.90
23207;DHT22;11773;52.570;13.052;2023-04-25T01:28:41;11.80;99.90
23207;DHT22;11773;52.570;13.052;2023-04-25T01:31:12;11.80;99.90
23207;DHT22;11773;52.570;13.052;2023-04-25T01:33:42;11.40;99.90
23207;DHT22;11773;52.570;13.052;2023-04-25T01:36:13;11.50;99.90
23207;DHT22;11773;52.570;13.052;2023-04-25T01:38:44;11.60;99.90
23207;DHT22;11773;52.570;13.052;2023-04-25T01:41:15;11.70;99.90
23207;DHT22;11773;52.570;13.052;2023-04-25T01:43:45;11.70;99.90
23207;DHT22;11773;52.570;13.052;2023-04-25T01:46:16;11.80;99.90
23207;DHT22;11773;52.570;13.052;2023-04-25T01:48:45;11.60;99.90
23207;DHT22;11773;52.570;13.052;2023-04-25T01:51:15;11.60;99.90
23207;DHT22;11773;52.570;13.052;2023-04-25T01:53:45;11.70;99.90
23207;DHT22;11773;52.570;13.052;2023-04-25T01:56:15;11.50;99.90
23207;DHT22;11773;52.570;13.052;2023-04-25T01:58:46;11.70;99.90
23207;DHT22;11773;52.570;13.052;2023-04-25T02:01:17;11.60;99.90
23207;DHT22;11773;52.570;13.052;2023-04-25T02:03:47;11.50;99.90
23207;DHT22;11773;52.570;13.052;2023-04-25T02:06:17;11.60;99.90
23207;DHT22;11773;52.570;13.052;2023-04-25T02:08:46;11.30;99.90
23207;DHT22;11773;52.570;13.052;2023-04-25T02:11:16;11.30;99.90
23207;DHT22;11773;52.570;13.052;2023-04-25T02:13:45;11.30;99.90
23207;DHT22;11773;52.570;13.052;2023-04-25T02:16:15;11.30;99.90
23207;DHT22;11773;52.570;13.052;2023-04-25T02:18:45;11.40;99.90
23207;DHT22;11773;52.570;13.052;2023-04-25T02:21:15;11.40;99.90
23207;DHT22;11773;52.570;13.052;2023-04-25T02:23:44;11.40;99.90
23207;DHT22;11773;52.570;13.052;2023-04-25T02:26:16;11.40;99.90
23207;DHT22;11773;52.570;13.052;2023-04-25T02:28:45;11.30;99.90
23207;DHT22;11773;52.570;13.052;2023-04-25T02:31:15;11.20;99.90
23207;DHT22;11773;52.570;13.052;2023-04-25T02:33:45;11.30;99.90
23207;DHT22;11773;52.570;13.052;2023-04-25T02:36:15;11.30;99.90
23207;DHT22;11773;52.570;13.052;2023-04-25T02:38:45;11.40;99.90
23207;DHT22;11773;52.570;13.052;2023-04-25T02:41:14;11.10;99.90
23207;DHT22;11773;52.570;13.052;2023-04-25T02:43:44;11.30;99.90
23207;DHT22;11773;52.570;13.052;2023-04-25T02:46:13;11.30;99.90
23207;DHT22;11773;52.570;13.052;2023-04-25T02:48:45;11.10;99.90
23207;DHT22;11773;52.570;13.052;2023-04-25T02:51:14;11.40;99.90
23207;DHT22;11773;52.570;13.052;2023-04-25T02:53:44;11.20;99.90
23207;DHT22;11773;52.570;13.052;2023-04-25T02:56:14;11.30;99.90
23207;DHT22;11773;52.570;13.052;2023-04-25T02:58:43;11.20;99.90
23207;DHT22;11773;52.570;13.052;2023-04-25T03:01:13;11.20;99.90
23207;DHT22;11773;52.570;13.052;2023-04-25T03:03:42;11.10;99.90
23207;DHT22;11773;52.570;13.052;2023-04-25T03:06:12;11.10;99.90
23207;DHT22;11773;52.570;13.052;2023-04-25T03:08:43;11.00;99.90
23207;DHT22;11773;52.570;13.052;2023-04-25T03:11:12;11.00;99.90
23207;DHT22;11773;52.570;13.052;2023-04-25T03:13:42;11.10;99.90
23207;DHT22;11773;52.570;13.052;2023-04-25T03:16:11;11.10;99.90
23207;DHT22;11773;52.570;13.052;2023-04-25T03:18:41;11.20;99.90
23207;DHT22;11773;52.570;13.052;2023-04-25T03:21:10;11.20;99.90
23207;DHT22;11773;52.570;13.052;2023-04-25T03:23:40;11.20;99.90
23207;DHT22;11773;52.570;13.052;2023-04-25T03:26:10;11.20;99.90
23207;DHT22;11773;52.570;13.052;2023-04-25T03:28:39;11.20;99.90
23207;DHT22;11773;52.570;13.052;2023-04-25T03:31:09;11.20;99.90
23207;DHT22;11773;52.570;13.052;2023-04-25T03:33:39;11.00;99.90
23207;DHT22;11773;52.570;13.052;2023-04-25T03:36:08;11.10;99.90
23207;DHT22;11773;52.570;13.052;2023-04-25T03:38:38;11.10;99.90
23207;DHT22;11773;52.570;13.052;2023-04-25T03:41:09;11.10;99.90
23207;DHT22;11773;52.570;13.052;2023-04-25T03:43:38;11.10;99.90
23207;DHT22;11773;52.570;13.052;2023-04-25T03:46:08;11.10;99.90
23207;DHT22;11773;52.570;13.052;2023-04-25T03:48:37;11.10;99.90
23207;DHT22;11773;52.570;13.052;2023-04-25T03:51:07;11.10;99.90
23207;DHT22;11773;52.570;13.052;2023-04-25T03:53:37;11.20;99.90
23207;DHT22;11773;52.570;13.052;2023-04-25T03:56:06;11.00;99.90
23207;DHT22;11773;52.570;13.052;2023-04-25T03:58:37;10.90;99.90
23207;DHT22;11773;52.570;13.052;2023-04-25T04:01:06;11.00;99.90
23207;DHT22;11773;52.570;13.052;2023-04-25T04:03:36;11.10;99.90
23207;DHT22;11773;52.570;13.052;2023-04-25T04:06:07;11.30;99.90
23207;DHT22;11773;52.570;13.052;2023-04-25T04:08:38;11.30;99.90
23207;DHT22;11773;52.570;13.052;2023-04-25T04:11:07;11.20;99.90
23207;DHT22;11773;52.570;13.052;2023-04-25T04:13:37;11.20;99.90
23207;DHT22;11773;52.570;13.052;2023-04-25T04:16:06;11.10;99.90
23207;DHT22;11773;52.570;13.052;2023-04-25T04:18:36;11.30;99.90
23207;DHT22;11773;52.570;13.052;2023-04-25T04:21:05;11.10;99.90
23207;DHT22;11773;52.570;13.052;2023-04-25T04:23:35;11.20;99.90
23207;DHT22;11773;52.570;13.052;2023-04-25T04:26:06;11.20;99.90
23207;DHT22;11773;52.570;13.052;2023-04-25T04:28:36;11.10;99.90
23207;DHT22;11773;52.570;13.052;2023-04-25T04:31:06;11.20;99.90
23207;DHT22;11773;52.570;13.052;2023-04-25T04:33:37;11.20;99.90
23207;DHT22;11773;52.570;13.052;2023-04-25T04:36:07;11.30;99.90
23207;DHT22;11773;52.570;13.052;2023-04-25T04:38:36;10.90;99.90
23207;DHT22;11773;52.570;13.052;2023-04-25T04:41:08;11.00;99.90
23207;DHT22;11773;52.570;13.052;2023-04-25T04:43:37;11.20;99.90
23207;DHT22;11773;52.570;13.052;2023-04-25T04:46:07;11.30;99.90
23207;DHT22;11773;52.570;13.052;2023-04-25T04:48:38;11.20;99.90
23207;DHT22;11773;52.570;13.052;2023-04-25T04:51:07;11.20;99.90
23207;DHT22;11773;52.570;13.052;2023-04-25T04:53:37;11.10;99.90
23207;DHT22;11773;52.570;13.052;2023-04-25T04:56:06;11.20;99.90
23207;DHT22;11773;52.570;13.052;2023-04-25T04:58:36;11.30;99.90
23207;DHT22;11773;52.570;13.052;2023-04-25T05:01:06;11.40;99.90
23207;DHT22;11773;52.570;13.052;2023-04-25T05:03:35;11.50;99.90
23207;DHT22;11773;52.570;13.052;2023-04-25T05:06:05;11.40;99.90
23207;DHT22;11773;52.570;13.052;2023-04-25T05:08:36;11.20;99.90
23207;DHT22;11773;52.570;13.052;2023-04-25T05:11:06;11.20;99.90
23207;DHT22;11773;52.570;13.052;2023-04-25T05:13:36;11.30;99.90
23207;DHT22;11773;52.570;13.052;2023-04-25T05:16:05;11.20;99.90
23207;DHT22;11773;52.570;13.052;2023-04-25T05:18:35;11.30;99.90
23207;DHT22;11773;52.570;13.052;2023-04-25T05:21:04;11.40;99.90
23207;DHT22;11773;52.570;13.052;2023-04-25T05:23:34;11.30;99.90
23207;DHT22;11773;52.570;13.052;2023-04-25T05:26:04;11.40;99.90
23207;DHT22;11773;52.570;13.052;2023-04-25T05:28:35;11.30;99.90
23207;DHT22;11773;52.570;13.052;2023-04-25T05:31:05;11.20;99.90
23207;DHT22;11773;52.570;13.052;2023-04-25T05:33:35;11.20;99.90
23207;DHT22;11773;52.570;13.052;2023-04-25T05:36:05;11.10;99.90
23207;DHT22;11773;52.570;13.052;2023-04-25T05:38:34;11.20;99.90
23207;DHT22;11773;52.570;13.052;2023-04-25T05:41:04;11.40;99.90
23207;DHT22;11773;52.570;13.052;2023-04-25T05:43:35;11.60;99.90
23207;DHT22;11773;52.570;13.052;2023-04-25T05:46:04;11.50;99.90
23207;DHT22;11773;52.570;13.052;2023-04-25T05:48:34;11.50;99.90
23207;DHT22;11773;52.570;13.052;2023-04-25T05:51:04;11.50;99.90
23207;DHT22;11773;52.570;13.052;2023-04-25T05:53:33;11.50;99.90
23207;DHT22;11773;52.570;13.052;2023-04-25T05:56:04;11.50;99.90
23207;DHT22;11773;52.570;13.052;2023-04-25T05:58:33;11.50;99.90
23207;DHT22;11773;52.570;13.052;2023-04-25T06:01:03;11.60;99.90
23207;DHT22;11773;52.570;13.052;2023-04-25T06:03:32;11.60;99.90
23207;DHT22;11773;52.570;13.052;2023-04-25T06:06:03;11.20;99.90
23207;DHT22;11773;52.570;13.052;2023-04-25T06:08:33;11.10;99.90
23207;DHT22;11773;52.570;13.052;2023-04-25T06:11:03;11.30;99.90
23207;DHT22;11773;52.570;13.052;2023-04-25T06:13:32;11.20;99.90
23207;DHT22;11773;52.570;13.052;2023-04-25T06:16:02;11.10;99.90
23207;DHT22;11773;52.570;13.052;2023-04-25T06:18:32;11.10;99.90
23207;DHT22;11773;52.570;13.052;2023-04-25T06:21:02;11.10;99.90
23207;DHT22;11773;52.570;13.052;2023-04-25T06:23:31;11.10;99.90
23207;DHT22;11773;52.570;13.052;2023-04-25T06:26:01;11.30;99.90
23207;DHT22;11773;52.570;13.052;2023-04-25T06:28:31;11.30;99.90
23207;DHT22;11773;52.570;13.052;2023-04-25T06:31:00;11.50;99.90
23207;DHT22;11773;52.570;13.052;2023-04-25T06:33:30;11.30;99.90
23207;DHT22;11773;52.570;13.052;2023-04-25T06:35:59;11.20;99.90
23207;DHT22;11773;52.570;13.052;2023-04-25T06:38:29;11.20;99.90
23207;DHT22;11773;52.570;13.052;2023-04-25T06:40:58;11.30;99.90
23207;DHT22;11773;52.570;13.052;2023-04-25T06:43:28;11.10;99.90
23207;DHT22;11773;52.570;13.052;2023-04-25T06:45:59;10.90;99.90
23207;DHT22;11773;52.570;13.052;2023-04-25T06:48:29;11.00;99.90
23207;DHT22;11773;52.570;13.052;2023-04-25T06:50:58;10.90;99.90
23207;DHT22;11773;52.570;13.052;2023-04-25T06:53:28;11.00;99.90
23207;DHT22;11773;52.570;13.052;2023-04-25T06:55:58;11.20;99.90
23207;DHT22;11773;52.570;13.052;2023-04-25T06:58:27;11.20;99.90
23207;DHT22;11773;52.570;13.052;2023-04-25T07:00:57;11.20;99.90
23207;DHT22;11773;52.570;13.052;2023-04-25T07:03:27;11.10;99.90
23207;DHT22;11773;52.570;13.052;2023-04-25T07:05:57;11.30;99.90
23207;DHT22;11773;52.570;13.052;2023-04-25T07:08:26;11.20;99.90
23207;DHT22;11773;52.570;13.052;2023-04-25T07:10:57;11.20;99.90
23207;DHT22;11773;52.570;13.052;2023-04-25T07:13:27;11.30;99.90
23207;DHT22;11773;52.570;13.052;2023-04-25T07:15:56;11.20;99.90
23207;DHT22;11773;52.570;13.052;2023-04-25T07:18:26;11.30;99.90
23207;DHT22;11773;52.570;13.052;2023-04-25T07:20:55;11.20;99.90
23207;DHT22;11773;52.570;13.052;2023-04-25T07:23:25;11.00;99.90
23207;DHT22;11773;52.570;13.052;2023-04-25T07:25:54;11.10;99.90
23207;DHT22;11773;52.570;13.052;2023-04-25T07:28:24;11.10;99.90
23207;DHT22;11773;52.570;13.052;2023-04-25T07:30:53;11.10;99.90
23207;DHT22;11773;52.570;13.052;2023-04-25T07:33:23;11.10;99.90
23207;DHT22;11773;52.570;13.052;2023-04-25T07:35:53;11.00;99.90
23207;DHT22;11773;52.570;13.052;2023-04-25T07:38:23;11.10;99.90
23207;DHT22;11773;52.570;13.052;2023-04-25T07:40:53;11.30;99.90
23207;DHT22;11773;52.570;13.052;2023-04-25T07:43:22;11.30;99.90
23207;DHT22;11773;52.570;13.052;2023-04-25T07:45:52;11.40;99.90
23207;DHT22;11773;52.570;13.052;2023-04-25T07:48:21;11.10;99.90
23207;DHT22;11773;52.570;13.052;2023-04-25T07:50:51;11.20;99.90
23207;DHT22;11773;52.570;13.052;2023-04-25T07:53:20;11.20;99.90
23207;DHT22;11773;52.570;13.052;2023-04-25T07:55:51;11.30;99.90
23207;DHT22;11773;52.570;13.052;2023-04-25T07:58:20;11.60;99.90
23207;DHT22;11773;52.570;13.052;2023-04-25T08:00:50;11.70;99.90
23207;DHT22;11773;52.570;13.052;2023-04-25T08:03:19;11.70;99.90
23207;DHT22;11773;52.570;13.052;2023-04-25T08:05:49;11.60;99.90
23207;DHT22;11773;52.570;13.052;2023-04-25T08:08:20;11.80;99.90
23207;DHT22;11773;52.570;13.052;2023-04-25T08:10:51;11.60;99.90
23207;DHT22;11773;52.570;13.052;2023-04-25T08:13:20;11.80;99.90
23207;DHT22;11773;52.570;13.052;2023-04-25T08:15:50;11.80;99.90
23207;DHT22;11773;52.570;13.052;2023-04-25T08:18:19;11.90;99.90
23207;DHT22;11773;52.570;13.052;2023-04-25T08:20:49;11.80;99.90
23207;DHT22;11773;52.570;13.052;2023-04-25T08:23:19;11.90;99.90
23207;DHT22;11773;52.570;13.052;2023-04-25T08:25:48;12.00;99.90
23207;DHT22;11773;52.570;13.052;2023-04-25T08:28:18;11.90;99.90
23207;DHT22;11773;52.570;13.052;2023-04-25T08:30:48;11.80;99.90
23207;DHT22;11773;52.570;13.052;2023-04-25T08:33:17;11.70;99.90
23207;DHT22;11773;52.570;13.052;2023-04-25T08:35:47;11.90;99.90
23207;DHT22;11773;52.570;13.052;2023-04-25T08:38:17;12.10;99.90
23207;DHT22;11773;52.570;13.052;2023-04-25T08:40:49;12.30;99.90
23207;DHT22;11773;52.570;13.052;2023-04-25T08:43:20;12.30;99.90
23207;DHT22;11773;52.570;13.052;2023-04-25T08:45:53;12.40;99.90
23207;DHT22;11773;52.570;13.052;2023-04-25T08:48:25;12.80;99.90
23207;DHT22;11773;52.570;13.052;2023-04-25T08:50:56;13.00;99.90
23207;DHT22;11773;52.570;13.052;2023-04-25T08:53:27;13.40;99.90
23207;DHT22;11773;52.570;13.052;2023-04-25T08:56:01;13.70;99.90
23207;DHT22;11773;52.570;13.052;2023-04-25T08:58:31;13.80;99.90
23207;DHT22;11773;52.570;13.052;2023-04-25T09:01:01;13.80;99.90
23207;DHT22;11773;52.570;13.052;2023-04-25T09:03:30;13.60;99.90
23207;DHT22;11773;52.570;13.052;2023-04-25T09:06:01;13.50;99.90
23207;DHT22;11773;52.570;13.052;2023-04-25T09:08:30;13.50;99.90
23207;DHT22;11773;52.570;13.052;2023-04-25T09:11:00;13.30;99.90
23207;DHT22;11773;52.570;13.052;2023-04-25T09:13:30;13.00;99.90
23207;DHT22;11773;52.570;13.052;2023-04-25T09:16:00;13.00;99.90
23207;DHT22;11773;52.570;13.052;2023-04-25T09:18:33;13.10;99.90
23207;DHT22;11773;52.570;13.052;2023-04-25T09:21:10;13.00;99.90
23207;DHT22;11773;52.570;13.052;2023-04-25T09:23:47;12.80;99.90
23207;DHT22;11773;52.570;13.052;2023-04-25T09:26:21;12.70;99.90
23207;DHT22;11773;52.570;13.052;2023-04-25T09:29:04;12.60;99.90
23207;DHT22;11773;52.570;13.052;2023-04-25T09:31:35;12.40;99.90
23207;DHT22;11773;52.570;13.052;2023-04-25T09:34:05;12.60;99.90
23207;DHT22;11773;52.570;13.052;2023-04-25T09:36:34;12.80;99.90
23207;DHT22;11773;52.570;13.052;2023-04-25T09:39:06;13.10;99.90
23207;DHT22;11773;52.570;13.052;2023-04-25T09:41:38;13.50;99.90
23207;DHT22;11773;52.570;13.052;2023-04-25T09:44:12;13.60;99.90
23207;DHT22;11773;52.570;13.052;2023-04-25T09:46:42;13.30;99.90
23207;DHT22;11773;52.570;13.052;2023-04-25T09:49:14;13.20;99.90
23207;DHT22;11773;52.570;13.052;2023-04-25T09:51:54;13.40;99.90
23207;DHT22;11773;52.570;13.052;2023-04-25T09:54:25;13.50;99.90
23207;DHT22;11773;52.570;13.052;2023-04-25T09:56:55;13.40;99.90
23207;DHT22;11773;52.570;13.052;2023-04-25T09:59:25;13.20;99.90
23207;DHT22;11773;52.570;13.052;2023-04-25T10:01:56;13.30;99.90
23207;DHT22;11773;52.570;13.052;2023-04-25T10:04:28;13.50;99.90
23207;DHT22;11773;52.570;13.052;2023-04-25T10:07:03;13.40;99.90
23207;DHT22;11773;52.570;13.052;2023-04-25T10:09:38;13.50;99.90
23207;DHT22;11773;52.570;13.052;2023-04-25T10:12:08;13.40;99.90
23207;DHT22;11773;52.570;13.052;2023-04-25T10:14:38;13.70;99.90
23207;DHT22;11773;52.570;13.052;2023-04-25T10:17:10;13.70;99.90
23207;DHT22;11773;52.570;13.052;2023-04-25T10:19:40;13.70;99.90
23207;DHT22;11773;52.570;13.052;2023-04-25T10:22:23;13.30;99.90
23207;DHT22;11773;52.570;13.052;2023-04-25T10:25:08;13.50;99.90
23207;DHT22;11773;52.570;13.052;2023-04-25T10:27:39;13.80;99.90
23207;DHT22;11773;52.570;13.052;2023-04-25T10:30:11;13.60;99.90
23207;DHT22;11773;52.570;13.052;2023-04-25T10:32:45;13.50;99.90
23207;DHT22;11773;52.570;13.052;2023-04-25T10:35:26;13.80;99.90
23207;DHT22;11773;52.570;13.052;2023-04-25T10:38:09;14.00;99.90
23207;DHT22;11773;52.570;13.052;2023-04-25T10:40:41;14.10;99.90
23207;DHT22;11773;52.570;13.052;2023-04-25T10:43:33;13.80;99.90
23207;DHT22;11773;52.570;13.052;2023-04-25T10:46:27;13.80;99.90
23207;DHT22;11773;52.570;13.052;2023-04-25T10:49:02;13.90;99.90
23207;DHT22;11773;52.570;13.052;2023-04-25T10:51:32;13.20;99.90
23207;DHT22;11773;52.570;13.052;2023-04-25T10:54:06;12.90;99.90
23207;DHT22;11773;52.570;13.052;2023-04-25T10:56:38;13.10;99.90
23207;DHT22;11773;52.570;13.052;2023-04-25T10:59:17;13.00;99.90
23207;DHT22;11773;52.570;13.052;2023-04-25T11:01:51;12.80;99.90
23207;DHT22;11773;52.570;13.052;2023-04-25T11:04:30;12.90;99.90
23207;DHT22;11773;52.570;13.052;2023-04-25T11:07:22;13.00;99.90
23207;DHT22;11773;52.570;13.052;2023-04-25T11:10:05;13.30;99.90
23207;DHT22;11773;52.570;13.052;2023-04-25T11:12:35;13.40;99.90
23207;DHT22;11773;52.570;13.052;2023-04-25T11:15:06;13.50;99.90
23207;DHT22;11773;52.570;13.052;2023-04-25T11:17:37;13.30;99.90
23207;DHT22;11773;52.570;13.052;2023-04-25T11:20:08;13.30;99.90
23207;DHT22;11773;52.570;13.052;2023-04-25T11:22:39;13.10;99.90
23207;DHT22;11773;52.570;13.052;2023-04-25T11:25:11;13.20;99.90
23207;DHT22;11773;52.570;13.052;2023-04-25T11:27:56;13.40;99.90
23207;DHT22;11773;52.570;13.052;2023-04-25T11:30:28;13.60;99.90
23207;DHT22;11773;52.570;13.052;2023-04-25T11:32:58;13.80;99.90
23207;DHT22;11773;52.570;13.052;2023-04-25T11:35:28;13.50;99.90
23207;DHT22;11773;52.570;13.052;2023-04-25T11:37:57;13.70;99.90
23207;DHT22;11773;52.570;13.052;2023-04-25T11:40:27;13.50;99.90
23207;DHT22;11773;52.570;13.052;2023-04-25T11:43:00;13.50;99.90
23207;DHT22;11773;52.570;13.052;2023-04-25T11:45:30;13.60;99.90
23207;DHT22;11773;52.570;13.052;2023-04-25T11:48:01;13.50;99.90
23207;DHT22;11773;52.570;13.052;2023-04-25T11:50:31;13.50;99.90
23207;DHT22;11773;52.570;13.052;2023-04-25T11:53:01;13.50;99.90
23207;DHT22;11773;52.570;13.052;2023-04-25T11:55:30;13.30;99.90
23207;DHT22;11773;52.570;13.052;2023-04-25T11:58:00;13.50;99.90
23207;DHT22;11773;52.570;13.052;2023-04-25T12:00:31;13.40;99.90
23207;DHT22;11773;52.570;13.052;2023-04-25T12:03:00;13.60;99.90
23207;DHT22;11773;52.570;13.052;2023-04-25T12:05:31;13.70;99.90
23207;DHT22;11773;52.570;13.052;2023-04-25T12:08:15;13.70;99.90
23207;DHT22;11773;52.570;13.052;2023-04-25T12:10:46;13.60;99.90
23207;DHT22;11773;52.570;13.052;2023-04-25T12:13:23;13.40;99.90
23207;DHT22;11773;52.570;13.052;2023-04-25T12:15:57;13.30;99.90
23207;DHT22;11773;52.570;13.052;2023-04-25T12:18:28;13.50;99.90
23207;DHT22;11773;52.570;13.052;2023-04-25T12:20:58;13.20;99.90
23207;DHT22;11773;52.570;13.052;2023-04-25T12:23:28;13.30;99.90
23207;DHT22;11773;52.570;13.052;2023-04-25T12:25:58;13.40;99.90
23207;DHT22;11773;52.570;13.052;2023-04-25T12:28:31;13.50;99.90
23207;DHT22;11773;52.570;13.052;2023-04-25T12:31:06;13.50;99.90
23207;DHT22;11773;52.570;13.052;2023-04-25T12:33:37;13.40;99.90
23207;DHT22;11773;52.570;13.052;2023-04-25T12:36:08;13.50;99.90
23207;DHT22;11773;52.570;13.052;2023-04-25T12:38:40;13.60;99.90
23207;DHT22;11773;52.570;13.052;2023-04-25T12:41:10;13.50;99.90
23207;DHT22;11773;52.570;13.052;2023-04-25T12:43:41;13.70;99.90
23207;DHT22;11773;52.570;13.052;2023-04-25T12:46:10;13.70;99.90
23207;DHT22;11773;52.570;13.052;2023-04-25T12:48:40;13.70;99.90
23207;DHT22;11773;52.570;13.052;2023-04-25T12:51:10;13.60;99.90
23207;DHT22;11773;52.570;13.052;2023-04-25T12:53:40;13.50;99.90
23207;DHT22;11773;52.570;13.052;2023-04-25T12:56:10;13.40;99.90
23207;DHT22;11773;52.570;13.052;2023-04-25T12:58:39;13.60;99.90
23207;DHT22;11773;52.570;13.052;2023-04-25T13:01:11;13.50;99.90
23207;DHT22;11773;52.570;13.052;2023-04-25T13:03:41;13.50;99.90
23207;DHT22;11773;52.570;13.052;2023-04-25T13:06:12;13.50;99.90
23207;DHT22;11773;52.570;13.052;2023-04-25T13:08:41;13.60;99.90
23207;DHT22;11773;52.570;13.052;2023-04-25T13:11:11;13.50;99.90
23207;DHT22;11773;52.570;13.052;2023-04-25T13:13:42;13.60;99.90
23207;DHT22;11773;52.570;13.052;2023-04-25T13:16:12;13.30;99.90
23207;DHT22;11773;52.570;13.052;2023-04-25T13:18:42;13.20;99.90
23207;DHT22;11773;52.570;13.052;2023-04-25T13:21:12;13.20;99.90
23207;DHT22;11773;52.570;13.052;2023-04-25T13:23:41;13.40;99.90
23207;DHT22;11773;52.570;13.052;2023-04-25T13:26:12;13.60;99.90
23207;DHT22;11773;52.570;13.052;2023-04-25T13:28:41;13.60;99.90
23207;DHT22;11773;52.570;13.052;2023-04-25T13:31:11;13.50;99.90
23207;DHT22;11773;52.570;13.052;2023-04-25T13:33:41;13.60;99.90
23207;DHT22;11773;52.570;13.052;2023-04-25T13:36:11;13.50;99.90
23207;DHT22;11773;52.570;13.052;2023-04-25T13:38:41;13.50;99.90
23207;DHT22;11773;52.570;13.052;2023-04-25T13:41:11;13.30;99.90
23207;DHT22;11773;52.570;13.052;2023-04-25T13:43:42;13.50;99.90
23207;DHT22;11773;52.570;13.052;2023-04-25T13:46:13;13.20;99.90
23207;DHT22;11773;52.570;13.052;2023-04-25T13:48:45;13.10;99.90
23207;DHT22;11773;52.570;13.052;2023-04-25T13:51:16;13.20;99.90
23207;DHT22;11773;52.570;13.052;2023-04-25T13:53:46;13.10;99.90
23207;DHT22;11773;52.570;13.052;2023-04-25T13:56:15;13.10;99.90
23207;DHT22;11773;52.570;13.052;2023-04-25T13:58:47;12.90;99.90
23207;DHT22;11773;52.570;13.052;2023-04-25T14:01:16;12.90;99.90
23207;DHT22;11773;52.570;13.052;2023-04-25T14:03:46;13.00;99.90
23207;DHT22;11773;52.570;13.052;2023-04-25T14:06:16;13.00;99.90
23207;DHT22;11773;52.570;13.052;2023-04-25T14:08:47;13.30;99.90
23207;DHT22;11773;52.570;13.052;2023-04-25T14:11:17;13.50;99.90
23207;DHT22;11773;52.570;13.052;2023-04-25T14:13:47;13.60;99.90
23207;DHT22;11773;52.570;13.052;2023-04-25T14:16:17;13.60;99.90
23207;DHT22;11773;52.570;13.052;2023-04-25T14:18:47;13.60;99.90
23207;DHT22;11773;52.570;13.052;2023-04-25T14:21:16;13.40;99.90
23207;DHT22;11773;52.570;13.052;2023-04-25T14:23:48;13.70;99.90
23207;DHT22;11773;52.570;13.052;2023-04-25T14:26:18;13.60;99.90
23207;DHT22;11773;52.570;13.052;2023-04-25T14:28:48;13.50;99.90
23207;DHT22;11773;52.570;13.052;2023-04-25T14:31:18;13.50;99.90
23207;DHT22;11773;52.570;13.052;2023-04-25T14:33:48;13.40;99.90
23207;DHT22;11773;52.570;13.052;2023-04-25T14:36:19;13.30;99.90
23207;DHT22;11773;52.570;13.052;2023-04-25T14:38:48;12.90;99.90
23207;DHT22;11773;52.570;13.052;2023-04-25T14:41:18;12.70;99.90
23207;DHT22;11773;52.570;13.052;2023-04-25T14:43:47;12.80;99.90
23207;DHT22;11773;52.570;13.052;2023-04-25T14:46:18;12.70;99.90
23207;DHT22;11773;52.570;13.052;2023-04-25T14:48:50;12.70;99.90
23207;DHT22;11773;52.570;13.052;2023-04-25T14:51:20;13.00;99.90
23207;DHT22;11773;52.570;13.052;2023-04-25T14:53:49;13.20;99.90
23207;DHT22;11773;52.570;13.052;2023-04-25T14:56:19;13.00;99.90
23207;DHT22;11773;52.570;13.052;2023-04-25T14:58:49;13.20;99.90
23207;DHT22;11773;52.570;13.052;2023-04-25T15:01:18;13.40;99.90
23207;DHT22;11773;52.570;13.052;2023-04-25T15:03:50;13.40;99.90
23207;DHT22;11773;52.570;13.052;2023-04-25T15:06:20;13.00;99.90
23207;DHT22;11773;52.570;13.052;2023-04-25T15:08:50;13.20;99.90
23207;DHT22;11773;52.570;13.052;2023-04-25T15:11:20;13.30;99.90
23207;DHT22;11773;52.570;13.052;2023-04-25T15:13:49;13.00;99.90
23207;DHT22;11773;52.570;13.052;2023-04-25T15:16:20;13.10;99.90
23207;DHT22;11773;52.570;13.052;2023-04-25T15:18:49;13.10;99.90
23207;DHT22;11773;52.570;13.052;2023-04-25T15:21:19;13.00;99.90
23207;DHT22;11773;52.570;13.052;2023-04-25T15:23:49;13.00;99.90
23207;DHT22;11773;52.570;13.052;2023-04-25T15:26:19;12.80;99.90
23207;DHT22;11773;52.570;13.052;2023-04-25T15:28:48;12.80;99.90
23207;DHT22;11773;52.570;13.052;2023-04-25T15:31:18;12.70;99.90
23207;DHT22;11773;52.570;13.052;2023-04-25T15:33:48;12.60;99.90
23207;DHT22;11773;52.570;13.052;2023-04-25T15:36:18;12.70;99.90